createdAt,value
2019-05-02T00:01:33.525Z,99.90
2019-05-02T00:04:02.851Z,99.90
2019-05-02T00:06:37.983Z,99.90
2019-05-02T00:09:09.159Z,99.90
2019-05-02T00:11:37.847Z,99.90
2019-05-02T00:14:08.681Z,99.90
2019-05-02T00:16:37.961Z,99.90
2019-05-02T00:19:09.094Z,99.90
2019-05-02T00:21:42.630Z,99.90
2019-05-02T00:24:10.793Z,99.90
2019-05-02T00:26:40.067Z,99.90
2019-05-02T00:29:09.362Z,99.90
2019-05-02T00:31:41.768Z,99.90
2019-05-02T00:34:09.643Z,99.90
2019-05-02T00:36:38.926Z,99.90
2019-05-02T00:39:09.648Z,99.90
2019-05-02T00:41:40.481Z,99.90
2019-05-02T00:44:11.062Z,99.90
2019-05-02T00:46:40.875Z,99.90
2019-05-02T00:49:10.386Z,99.90
2019-05-02T00:51:39.713Z,99.90
2019-05-02T00:54:09.041Z,99.90
2019-05-02T00:56:40.244Z,99.90
2019-05-02T00:59:09.657Z,99.90
2019-05-02T01:02:00.148Z,99.90
2019-05-02T01:04:30.914Z,99.90
2019-05-02T01:07:00.301Z,99.90
2019-05-02T01:09:29.754Z,99.90
2019-05-02T01:12:03.036Z,99.90
2019-05-02T01:14:31.864Z,99.90
2019-05-02T01:17:01.312Z,99.90
2019-05-02T01:19:30.690Z,99.90
2019-05-02T01:21:59.957Z,99.90
2019-05-02T01:24:29.240Z,99.90
2019-05-02T01:27:17.467Z,99.90
2019-05-02T01:29:55.449Z,99.90
2019-05-02T01:32:31.377Z,99.90
2019-05-02T01:35:18.957Z,99.90
2019-05-02T01:38:16.025Z,99.90
2019-05-02T01:40:48.167Z,99.90
2019-05-02T01:43:24.029Z,99.90
2019-05-02T01:45:53.435Z,99.90
2019-05-02T01:48:22.883Z,99.90
2019-05-02T01:50:52.145Z,99.90
2019-05-02T01:53:21.489Z,99.90
2019-05-02T01:55:51.824Z,99.90
2019-05-02T01:58:22.874Z,99.90
2019-05-02T02:00:52.402Z,99.90
2019-05-02T02:03:21.681Z,99.90
2019-05-02T02:05:50.982Z,99.90
2019-05-02T02:08:20.249Z,99.90
2019-05-02T02:10:50.517Z,99.90
2019-05-02T02:13:20.675Z,99.90
2019-05-02T02:15:49.986Z,99.90
2019-05-02T02:18:22.204Z,99.90
2019-05-02T02:21:13.325Z,99.90
2019-05-02T02:24:02.914Z,99.90
2019-05-02T02:26:32.229Z,99.90
2019-05-02T02:29:03.025Z,99.90
2019-05-02T02:31:32.476Z,99.90
2019-05-02T02:34:01.855Z,99.90
2019-05-02T02:36:34.460Z,99.90
2019-05-02T02:39:06.912Z,99.90
2019-05-02T02:41:33.605Z,99.90
2019-05-02T02:44:22.018Z,99.90
2019-05-02T02:46:51.678Z,99.90
2019-05-02T02:49:24.034Z,99.90
2019-05-02T02:51:57.931Z,99.90
2019-05-02T02:54:23.427Z,99.90
2019-05-02T02:56:52.782Z,99.90
2019-05-02T02:59:26.421Z,99.90
2019-05-02T03:01:53.038Z,99.90
2019-05-02T03:04:22.294Z,99.90
2019-05-02T03:06:51.580Z,99.90
2019-05-02T03:09:26.605Z,99.90
2019-05-02T03:12:09.705Z,99.90
2019-05-02T03:14:47.183Z,99.90
2019-05-02T03:17:20.505Z,99.90
2019-05-02T03:19:45.526Z,99.90
2019-05-02T03:22:14.793Z,99.90
2019-05-02T03:24:46.709Z,99.90
2019-05-02T03:27:15.535Z,99.90
2019-05-02T03:29:44.858Z,99.90
2019-05-02T03:32:30.629Z,99.90
2019-05-02T03:34:51.800Z,99.90
2019-05-02T03:37:17.059Z,99.90
2019-05-02T03:39:49.689Z,99.90
2019-05-02T03:42:17.613Z,99.90
2019-05-02T03:44:55.064Z,99.90
2019-05-02T03:47:18.293Z,99.90
2019-05-02T03:49:51.783Z,99.90
2019-05-02T03:52:18.561Z,99.90
2019-05-02T03:54:50.564Z,99.90
2019-05-02T03:57:32.037Z,99.90
2019-05-02T03:59:50.254Z,99.90
2019-05-02T04:02:20.432Z,99.90
2019-05-02T04:04:54.094Z,99.90
2019-05-02T04:07:21.895Z,99.90
2019-05-02T04:09:52.073Z,99.90
2019-05-02T04:12:22.048Z,99.90
2019-05-02T04:14:55.311Z,99.90
2019-05-02T04:17:29.044Z,99.90
2019-05-02T04:19:54.241Z,99.90
2019-05-02T04:22:23.662Z,99.90
2019-05-02T04:24:56.326Z,99.90
2019-05-02T04:27:27.736Z,99.90
2019-05-02T04:29:56.158Z,99.90
2019-05-02T04:32:25.437Z,99.90
2019-05-02T04:34:57.685Z,99.90
2019-05-02T04:37:25.706Z,99.90
2019-05-02T04:39:59.183Z,99.90
2019-05-02T04:42:29.082Z,99.90
2019-05-02T04:45:13.892Z,99.90
2019-05-02T04:47:29.041Z,99.90
2019-05-02T04:49:58.689Z,99.90
2019-05-02T04:52:28.725Z,99.90
2019-05-02T04:55:08.332Z,99.90
2019-05-02T04:57:36.724Z,99.90
2019-05-02T05:00:06.242Z,99.90
2019-05-02T05:02:36.459Z,99.90
2019-05-02T05:05:02.550Z,99.90
2019-05-02T05:07:41.152Z,99.90
2019-05-02T05:10:03.561Z,99.90
2019-05-02T05:12:39.969Z,99.90
2019-05-02T05:15:04.205Z,99.90
2019-05-02T05:17:34.238Z,99.90
2019-05-02T05:20:10.692Z,99.90
2019-05-02T05:22:36.473Z,99.90
2019-05-02T05:25:12.174Z,99.90
2019-05-02T05:27:41.920Z,99.90
2019-05-02T05:30:15.440Z,99.90
2019-05-02T05:32:42.194Z,99.90
2019-05-02T05:35:13.121Z,99.90
2019-05-02T05:37:43.423Z,99.90
2019-05-02T05:40:13.597Z,99.90
2019-05-02T05:42:42.949Z,99.90
2019-05-02T05:45:13.918Z,99.90
2019-05-02T05:47:43.417Z,99.90
2019-05-02T05:50:12.783Z,99.90
2019-05-02T05:52:42.537Z,99.90
2019-05-02T05:55:12.849Z,99.90
2019-05-02T05:57:43.050Z,99.90
2019-05-02T06:00:18.729Z,99.90
2019-05-02T06:02:52.807Z,99.90
2019-05-02T06:05:14.446Z,99.90
2019-05-02T06:07:44.887Z,99.90
2019-05-02T06:10:14.636Z,99.90
2019-05-02T06:12:43.897Z,99.90
2019-05-02T06:15:13.456Z,99.90
2019-05-02T06:17:42.715Z,99.90
2019-05-02T06:20:12.328Z,99.90
2019-05-02T06:22:41.601Z,99.90
2019-05-02T06:25:11.342Z,99.90
2019-05-02T06:27:40.619Z,99.90
2019-05-02T06:30:10.274Z,99.90
2019-05-02T06:32:39.547Z,99.90
2019-05-02T06:35:09.618Z,99.90
2019-05-02T06:37:40.567Z,99.90
2019-05-02T06:40:10.370Z,99.90
2019-05-02T06:42:39.649Z,99.90
2019-05-02T06:45:10.225Z,99.90
2019-05-02T06:47:41.847Z,99.90
2019-05-02T06:50:10.782Z,99.90
2019-05-02T06:52:40.152Z,99.90
2019-05-02T06:55:09.933Z,99.90
2019-05-02T06:57:39.226Z,99.90
2019-05-02T07:00:09.103Z,99.90
2019-05-02T07:02:38.382Z,99.90
2019-05-02T07:05:08.230Z,99.90
2019-05-02T07:07:37.726Z,99.90
2019-05-02T07:10:08.475Z,99.90
2019-05-02T07:12:37.814Z,99.90
2019-05-02T07:15:10.692Z,99.90
2019-05-02T07:17:41.989Z,99.90
2019-05-02T07:20:11.868Z,99.40
2019-05-02T07:22:41.130Z,98.90
2019-05-02T07:25:10.769Z,98.60
2019-05-02T07:27:40.157Z,98.10
2019-05-02T07:30:10.953Z,97.50
2019-05-02T07:32:40.294Z,97.10
2019-05-02T07:35:09.973Z,96.90
2019-05-02T07:37:39.246Z,96.90
2019-05-02T07:40:12.159Z,96.90
2019-05-02T07:42:41.807Z,97.20
2019-05-02T07:45:11.563Z,97.30
2019-05-02T07:47:42.506Z,96.60
2019-05-02T07:50:12.150Z,96.00
2019-05-02T07:52:41.604Z,95.00
2019-05-02T07:55:11.436Z,94.60
2019-05-02T07:57:40.855Z,94.10
2019-05-02T08:00:10.841Z,94.10
2019-05-02T08:02:40.113Z,94.10
2019-05-02T08:05:09.682Z,93.40
2019-05-02T08:07:38.970Z,93.30
2019-05-02T08:10:08.477Z,91.90
2019-05-02T08:12:37.760Z,92.70
2019-05-02T08:15:13.034Z,91.40
2019-05-02T08:17:39.956Z,91.00
2019-05-02T08:20:13.706Z,88.70
2019-05-02T08:22:44.014Z,88.70
2019-05-02T08:25:11.682Z,81.80
2019-05-02T08:27:52.137Z,74.50
2019-05-02T08:30:35.292Z,67.80
2019-05-02T08:33:02.049Z,62.30
2019-05-02T08:35:31.373Z,53.40
2019-05-02T08:38:00.633Z,50.90
2019-05-02T08:40:29.924Z,53.50
2019-05-02T08:43:03.407Z,53.70
2019-05-02T08:45:33.132Z,53.70
2019-05-02T08:48:05.223Z,50.40
2019-05-02T08:50:33.446Z,47.90
2019-05-02T08:53:02.957Z,43.90
2019-05-02T08:55:32.229Z,40.90
2019-05-02T08:58:01.509Z,36.80
2019-05-02T09:00:32.229Z,37.40
2019-05-02T09:03:02.743Z,39.30
2019-05-02T09:05:37.010Z,40.10
2019-05-02T09:08:03.846Z,39.90
2019-05-02T09:10:37.187Z,42.50
2019-05-02T09:13:04.124Z,40.70
2019-05-02T09:15:35.200Z,39.70
2019-05-02T09:18:04.533Z,36.40
2019-05-02T09:20:33.830Z,33.30
2019-05-02T09:23:03.090Z,32.80
2019-05-02T09:25:32.513Z,31.40
2019-05-02T09:28:01.990Z,30.10
2019-05-02T09:30:32.724Z,29.10
2019-05-02T09:33:05.420Z,29.60
2019-05-02T09:35:33.111Z,30.90
2019-05-02T09:38:02.376Z,33.40
2019-05-02T09:40:31.989Z,34.00
2019-05-02T09:43:02.844Z,32.50
2019-05-02T09:45:37.411Z,31.90
2019-05-02T09:48:07.916Z,32.70
2019-05-02T09:50:38.292Z,30.60
2019-05-02T09:53:07.138Z,29.10
2019-05-02T09:55:36.487Z,29.00
2019-05-02T09:58:05.855Z,28.50
2019-05-02T10:00:41.805Z,28.20
2019-05-02T10:03:12.045Z,28.00
2019-05-02T10:05:43.042Z,30.40
2019-05-02T10:08:13.851Z,32.00
2019-05-02T10:10:45.795Z,34.40
2019-05-02T10:13:14.817Z,34.40
2019-05-02T10:15:44.120Z,31.40
2019-05-02T10:18:14.636Z,31.10
2019-05-02T10:20:44.134Z,28.20
2019-05-02T10:23:19.619Z,27.20
2019-05-02T10:25:46.932Z,27.10
2019-05-02T10:28:16.610Z,27.70
2019-05-02T10:30:47.490Z,28.30
2019-05-02T10:33:16.977Z,30.40
2019-05-02T10:35:48.195Z,33.00
2019-05-02T10:38:19.357Z,35.60
2019-05-02T10:40:53.517Z,37.50
2019-05-02T10:43:19.449Z,38.80
2019-05-02T10:45:56.440Z,40.30
2019-05-02T10:48:28.207Z,41.20
2019-05-02T10:51:02.182Z,42.90
2019-05-02T10:53:32.201Z,41.80
2019-05-02T10:56:02.673Z,43.10
2019-05-02T10:58:35.725Z,42.80
2019-05-02T11:01:03.061Z,43.60
2019-05-02T11:03:42.886Z,42.90
2019-05-02T11:06:08.919Z,43.20
2019-05-02T11:08:44.035Z,45.20
2019-05-02T11:11:09.458Z,45.00
2019-05-02T11:14:13.098Z,44.00
2019-05-02T11:16:49.150Z,44.60
2019-05-02T11:19:23.785Z,45.70
2019-05-02T11:21:58.214Z,46.00
2019-05-02T11:24:24.090Z,46.60
2019-05-02T11:26:53.429Z,47.00
2019-05-02T11:29:22.908Z,47.10
2019-05-02T11:31:52.283Z,47.60
2019-05-02T11:34:22.042Z,47.80
2019-05-02T11:36:52.690Z,48.30
2019-05-02T11:39:32.342Z,48.10
2019-05-02T11:41:54.375Z,48.70
2019-05-02T11:44:23.729Z,48.50
2019-05-02T11:46:53.017Z,48.20
2019-05-02T11:49:22.851Z,48.50
2019-05-02T11:51:56.950Z,49.20
2019-05-02T11:54:23.286Z,49.70
2019-05-02T11:56:53.530Z,49.60
2019-05-02T11:59:28.257Z,49.20
2019-05-02T12:02:09.463Z,49.60
2019-05-02T12:04:36.318Z,49.20
2019-05-02T12:07:05.710Z,49.10
2019-05-02T12:09:35.013Z,49.40
2019-05-02T12:12:04.302Z,49.80
2019-05-02T12:14:36.366Z,49.80
2019-05-02T12:17:04.617Z,50.00
2019-05-02T12:19:33.947Z,49.60
2019-05-02T12:22:07.174Z,49.50
2019-05-02T12:24:36.378Z,49.60
2019-05-02T12:27:05.367Z,49.70
2019-05-02T12:29:34.699Z,49.40
2019-05-02T12:32:03.987Z,50.00
2019-05-02T12:34:33.259Z,49.40
2019-05-02T12:37:02.533Z,49.30
2019-05-02T12:39:31.826Z,49.60
2019-05-02T12:42:03.077Z,49.50
2019-05-02T12:44:32.119Z,49.90
2019-05-02T12:47:02.601Z,50.40
2019-05-02T12:49:32.511Z,49.40
2019-05-02T12:52:01.933Z,48.90
2019-05-02T12:54:32.548Z,48.50
2019-05-02T12:57:02.130Z,49.30
2019-05-02T12:59:32.217Z,49.60
2019-05-02T13:02:03.627Z,49.20
2019-05-02T13:04:32.951Z,49.50
2019-05-02T13:07:02.327Z,49.20
2019-05-02T13:09:32.538Z,48.00
2019-05-02T13:12:25.681Z,47.90
2019-05-02T13:14:56.399Z,47.90
2019-05-02T13:17:25.977Z,49.00
2019-05-02T13:19:57.171Z,48.70
2019-05-02T13:22:47.960Z,48.00
2019-05-02T13:25:19.741Z,47.20
2019-05-02T13:27:49.096Z,46.80
2019-05-02T13:30:51.697Z,45.80
2019-05-02T13:33:34.419Z,46.00
2019-05-02T13:36:02.540Z,46.20
2019-05-02T13:38:32.946Z,45.40
2019-05-02T13:41:02.670Z,45.10
2019-05-02T13:43:38.280Z,45.20
2019-05-02T13:46:14.969Z,45.20
2019-05-02T13:48:44.262Z,46.10
2019-05-02T13:51:13.526Z,46.70
2019-05-02T13:53:55.302Z,46.20
2019-05-02T13:56:45.173Z,45.70
2019-05-02T13:59:15.144Z,45.70
2019-05-02T14:01:45.779Z,44.50
2019-05-02T14:04:15.242Z,44.80
2019-05-02T14:06:44.666Z,45.30
2019-05-02T14:09:50.231Z,45.60
2019-05-02T14:12:28.009Z,46.10
2019-05-02T14:14:57.313Z,45.90
2019-05-02T14:17:26.679Z,45.20
2019-05-02T14:20:07.803Z,44.80
2019-05-02T14:22:28.497Z,45.00
2019-05-02T14:24:57.826Z,45.30
2019-05-02T14:27:27.082Z,45.30
2019-05-02T14:29:56.350Z,45.50
2019-05-02T14:32:26.582Z,45.60
2019-05-02T14:35:05.293Z,45.80
2019-05-02T14:37:34.581Z,46.00
2019-05-02T14:40:13.534Z,45.70
2019-05-02T14:42:42.832Z,46.20
2019-05-02T14:45:27.148Z,46.60
2019-05-02T14:47:43.286Z,46.40
2019-05-02T14:50:23.485Z,46.20
2019-05-02T14:52:45.719Z,46.40
2019-05-02T14:55:17.026Z,46.60
2019-05-02T14:57:46.542Z,46.20
2019-05-02T15:00:16.953Z,46.40
2019-05-02T15:02:49.255Z,46.70
2019-05-02T15:05:19.417Z,46.80
2019-05-02T15:07:48.398Z,46.80
2019-05-02T15:10:17.811Z,46.70
2019-05-02T15:12:53.515Z,46.70
2019-05-02T15:15:18.110Z,46.60
2019-05-02T15:17:47.386Z,46.70
2019-05-02T15:20:16.958Z,46.50
2019-05-02T15:22:46.229Z,46.60
2019-05-02T15:25:17.814Z,46.00
2019-05-02T15:27:49.964Z,45.90
2019-05-02T15:30:17.471Z,46.00
2019-05-02T15:33:02.925Z,46.30
2019-05-02T15:35:50.245Z,46.20
2019-05-02T15:38:27.229Z,46.20
2019-05-02T15:40:53.582Z,46.70
2019-05-02T15:43:22.202Z,46.80
2019-05-02T15:45:52.651Z,47.10
2019-05-02T15:48:27.288Z,46.80
2019-05-02T15:50:55.361Z,46.50
2019-05-02T15:53:44.516Z,46.80
2019-05-02T15:56:19.754Z,46.90
2019-05-02T15:58:45.035Z,47.00
2019-05-02T16:01:36.576Z,46.80
2019-05-02T16:04:06.582Z,46.70
2019-05-02T16:06:35.848Z,46.70
2019-05-02T16:09:07.158Z,46.70
2019-05-02T16:11:36.430Z,46.40
2019-05-02T16:14:05.965Z,46.80
2019-05-02T16:16:36.710Z,46.60
2019-05-02T16:19:06.222Z,46.80
2019-05-02T16:21:43.942Z,46.90
2019-05-02T16:24:23.462Z,46.50
2019-05-02T16:26:56.682Z,46.70
2019-05-02T16:29:28.299Z,46.90
2019-05-02T16:32:18.157Z,47.20
2019-05-02T16:35:17.374Z,47.40
2019-05-02T16:37:51.086Z,47.80
2019-05-02T16:40:22.084Z,48.20
2019-05-02T16:42:49.026Z,48.10
2019-05-02T16:45:18.274Z,48.10
2019-05-02T16:47:49.744Z,48.00
2019-05-02T16:50:19.098Z,48.20
2019-05-02T16:52:48.597Z,48.00
2019-05-02T16:55:24.820Z,48.20
2019-05-02T16:57:51.967Z,48.50
2019-05-02T17:00:23.405Z,48.40
2019-05-02T17:02:52.675Z,48.40
2019-05-02T17:05:22.137Z,48.10
2019-05-02T17:07:58.021Z,48.40
2019-05-02T17:10:32.223Z,48.80
2019-05-02T17:13:02.781Z,49.00
2019-05-02T17:15:36.543Z,49.50
2019-05-02T17:18:12.665Z,49.80
2019-05-02T17:20:38.182Z,50.40
2019-05-02T17:23:07.925Z,51.40
2019-05-02T17:25:37.373Z,51.50
2019-05-02T17:28:10.279Z,52.00
2019-05-02T17:30:39.004Z,53.40
2019-05-02T17:33:12.809Z,54.00
2019-05-02T17:35:41.672Z,54.70
2019-05-02T17:38:12.073Z,55.30
2019-05-02T17:40:42.216Z,56.00
2019-05-02T17:43:11.637Z,56.90
2019-05-02T17:45:40.889Z,57.40
2019-05-02T17:48:16.536Z,58.90
2019-05-02T17:51:02.314Z,59.20
2019-05-02T17:53:33.915Z,59.20
2019-05-02T17:56:03.421Z,61.60
2019-05-02T17:58:32.725Z,62.80
2019-05-02T18:01:03.675Z,65.10
2019-05-02T18:03:35.248Z,66.50
2019-05-02T18:06:07.508Z,67.90
2019-05-02T18:08:35.261Z,69.40
2019-05-02T18:11:04.561Z,71.90
2019-05-02T18:13:35.416Z,76.20
2019-05-02T18:16:07.773Z,82.40
2019-05-02T18:18:42.635Z,88.20
2019-05-02T18:21:08.793Z,90.70
2019-05-02T18:23:38.066Z,91.90
2019-05-02T18:26:07.321Z,92.70
2019-05-02T18:28:46.131Z,93.10
2019-05-02T18:31:07.654Z,93.10
2019-05-02T18:33:41.116Z,93.20
2019-05-02T18:36:07.970Z,93.50
2019-05-02T18:38:37.305Z,93.80
2019-05-02T18:41:07.976Z,93.80
2019-05-02T18:43:43.614Z,93.70
2019-05-02T18:46:08.350Z,93.20
2019-05-02T18:48:42.146Z,93.40
2019-05-02T18:51:08.701Z,93.90
2019-05-02T18:53:38.059Z,93.90
2019-05-02T18:56:07.611Z,94.00
2019-05-02T18:58:41.344Z,94.10
2019-05-02T19:01:08.375Z,94.10
2019-05-02T19:03:38.952Z,93.80
2019-05-02T19:06:08.213Z,94.00
2019-05-02T19:08:46.811Z,94.30
2019-05-02T19:11:12.377Z,94.00
2019-05-02T19:13:42.914Z,94.20
2019-05-02T19:16:13.086Z,94.70
2019-05-02T19:18:42.661Z,95.10
2019-05-02T19:21:12.601Z,95.30
2019-05-02T19:23:42.593Z,95.30
2019-05-02T19:26:14.644Z,95.30
2019-05-02T19:29:02.454Z,95.80
2019-05-02T19:31:52.515Z,95.30
2019-05-02T19:34:26.589Z,95.00
2019-05-02T19:36:57.968Z,95.90
2019-05-02T19:39:26.141Z,95.70
2019-05-02T19:41:55.493Z,95.50
2019-05-02T19:44:28.881Z,95.70
2019-05-02T19:46:55.805Z,95.70
2019-05-02T19:49:25.440Z,95.50
2019-05-02T19:51:56.517Z,95.60
2019-05-02T19:54:25.975Z,95.60
2019-05-02T19:56:55.355Z,96.20
2019-05-02T19:59:26.529Z,96.20
2019-05-02T20:01:57.042Z,96.10
2019-05-02T20:04:27.341Z,96.10
2019-05-02T20:06:56.621Z,96.40
2019-05-02T20:09:25.937Z,96.00
2019-05-02T20:11:55.558Z,95.80
2019-05-02T20:14:25.237Z,95.70
2019-05-02T20:16:56.523Z,95.40
2019-05-02T20:19:27.117Z,95.30
2019-05-02T20:22:06.757Z,94.80
2019-05-02T20:25:00.091Z,94.80
2019-05-02T20:27:28.580Z,94.50
2019-05-02T20:29:58.146Z,94.10
2019-05-02T20:32:27.465Z,94.10
2019-05-02T20:34:56.751Z,94.20
2019-05-02T20:37:26.016Z,94.10
2019-05-02T20:39:55.285Z,93.70
2019-05-02T20:42:24.728Z,93.50
2019-05-02T20:44:54.092Z,93.40
2019-05-02T20:47:26.166Z,93.20
2019-05-02T20:49:55.446Z,93.00
2019-05-02T20:52:24.717Z,92.80
2019-05-02T20:54:54.077Z,92.80
2019-05-02T20:57:23.447Z,92.70
2019-05-02T20:59:52.797Z,92.60
2019-05-02T21:02:22.453Z,92.50
2019-05-02T21:04:52.309Z,92.20
2019-05-02T21:07:56.036Z,92.10
2019-05-02T21:10:32.288Z,92.00
2019-05-02T21:13:02.161Z,92.00
2019-05-02T21:15:32.371Z,91.90
2019-05-02T21:18:02.303Z,91.80
2019-05-02T21:20:32.499Z,91.80
2019-05-02T21:23:02.106Z,91.70
2019-05-02T21:25:32.600Z,91.70
2019-05-02T21:28:02.841Z,91.60
2019-05-02T21:30:32.545Z,91.60
2019-05-02T21:33:02.773Z,91.50
2019-05-02T21:35:32.645Z,91.20
2019-05-02T21:38:01.942Z,91.40
2019-05-02T21:40:32.774Z,91.40
2019-05-02T21:43:02.571Z,91.20
2019-05-02T21:45:31.999Z,91.30
2019-05-02T21:48:02.323Z,91.50
2019-05-02T21:50:59.757Z,91.30
2019-05-02T21:53:56.026Z,91.40
2019-05-02T21:56:52.089Z,91.40
2019-05-02T21:59:22.491Z,91.50
2019-05-02T22:01:53.491Z,91.70
2019-05-02T22:04:22.761Z,91.80
2019-05-02T22:06:52.913Z,91.70
2019-05-02T22:09:23.046Z,91.80
2019-05-02T22:11:52.675Z,91.80
2019-05-02T22:14:22.480Z,91.90
2019-05-02T22:16:53.137Z,91.90
2019-05-02T22:19:22.819Z,92.10
2019-05-02T22:21:52.587Z,92.20
2019-05-02T22:24:22.363Z,92.20
2019-05-02T22:26:52.597Z,92.30
2019-05-02T22:29:22.117Z,92.70
2019-05-02T22:31:54.176Z,92.60
2019-05-02T22:34:22.715Z,92.70
2019-05-02T22:36:53.850Z,93.00
2019-05-02T22:39:37.497Z,92.80
2019-05-02T22:42:06.949Z,93.00
2019-05-02T22:44:36.258Z,93.20
2019-05-02T22:47:05.526Z,93.20
2019-05-02T22:49:34.881Z,93.40
2019-05-02T22:52:04.327Z,93.70
2019-05-02T22:54:33.995Z,93.60
2019-05-02T22:57:03.369Z,94.30
2019-05-02T22:59:32.638Z,94.20
2019-05-02T23:02:02.251Z,94.20
2019-05-02T23:04:32.495Z,94.60
2019-05-02T23:07:02.447Z,94.60
2019-05-02T23:09:31.929Z,94.50
2019-05-02T23:12:02.878Z,94.80
2019-05-02T23:14:32.572Z,95.10
2019-05-02T23:17:02.278Z,94.90
2019-05-02T23:19:31.835Z,95.20
2019-05-02T23:22:02.102Z,95.50
2019-05-02T23:24:43.279Z,95.50
2019-05-02T23:27:19.917Z,95.70
2019-05-02T23:29:49.294Z,95.60
2019-05-02T23:32:18.541Z,95.80
2019-05-02T23:34:47.817Z,95.80
2019-05-02T23:37:17.097Z,95.80
2019-05-02T23:39:46.446Z,96.00
2019-05-02T23:42:15.718Z,95.80
2019-05-02T23:44:45.022Z,95.70
2019-05-02T23:47:14.393Z,95.50
2019-05-02T23:49:43.779Z,95.70
2019-05-02T23:52:13.038Z,95.90
2019-05-02T23:54:49.905Z,95.90
2019-05-02T23:57:13.354Z,95.70
2019-05-02T23:59:42.730Z,95.80
